createdAt,value
2019-05-29T00:00:56.520Z,1.53
2019-05-29T00:03:27.557Z,1.67
2019-05-29T00:05:58.504Z,1.57
2019-05-29T00:08:29.352Z,1.63
2019-05-29T00:11:00.312Z,1.50
2019-05-29T00:13:31.212Z,1.63
2019-05-29T00:16:01.998Z,1.70
2019-05-29T00:18:32.771Z,1.33
2019-05-29T00:21:03.613Z,1.70
2019-05-29T00:23:35.104Z,1.67
2019-05-29T00:26:06.363Z,1.57
2019-05-29T00:28:36.921Z,1.50
2019-05-29T00:31:07.838Z,1.60
2019-05-29T00:33:41.395Z,1.70
2019-05-29T00:36:12.464Z,1.60
2019-05-29T00:38:43.259Z,1.60
2019-05-29T00:41:15.064Z,1.60
2019-05-29T00:43:46.208Z,1.63
2019-05-29T00:46:17.623Z,1.50
2019-05-29T00:48:48.242Z,1.57
2019-05-29T00:51:19.046Z,1.50
2019-05-29T00:53:49.854Z,1.40
2019-05-29T00:56:20.847Z,1.60
2019-05-29T00:58:51.842Z,1.50
2019-05-29T01:01:23.472Z,1.60
2019-05-29T01:03:54.290Z,1.53
2019-05-29T01:06:25.227Z,1.57
2019-05-29T01:08:55.713Z,1.50
2019-05-29T01:11:26.247Z,1.70
2019-05-29T01:13:57.024Z,1.50
2019-05-29T01:16:28.051Z,1.50
2019-05-29T01:19:20.350Z,1.67
2019-05-29T01:21:51.237Z,1.60
2019-05-29T01:24:22.702Z,1.80
2019-05-29T01:26:53.772Z,1.97
2019-05-29T01:29:24.667Z,1.90
2019-05-29T01:31:55.484Z,1.90
2019-05-29T01:34:26.450Z,1.90
2019-05-29T01:36:57.294Z,2.00
2019-05-29T01:39:28.191Z,2.13
2019-05-29T01:41:59.090Z,2.00
2019-05-29T01:44:30.302Z,2.00
2019-05-29T01:47:01.416Z,2.30
2019-05-29T01:49:32.587Z,2.30
2019-05-29T01:52:03.083Z,2.33
2019-05-29T01:54:33.850Z,2.10
2019-05-29T01:57:05.406Z,2.10
2019-05-29T01:59:36.290Z,2.07
2019-05-29T02:02:07.081Z,2.17
2019-05-29T02:04:37.824Z,2.27
2019-05-29T02:07:13.253Z,1.90
2019-05-29T02:09:44.077Z,2.00
2019-05-29T02:12:16.189Z,1.80
2019-05-29T02:14:47.083Z,2.20
2019-05-29T02:17:17.921Z,2.00
2019-05-29T02:19:48.397Z,1.90
2019-05-29T02:22:18.963Z,1.87
2019-05-29T02:24:49.738Z,2.00
2019-05-29T02:27:21.433Z,2.10
2019-05-29T02:29:52.461Z,2.00
2019-05-29T02:32:23.571Z,1.83
2019-05-29T02:34:54.589Z,2.00
2019-05-29T02:37:26.197Z,1.60
2019-05-29T02:39:57.106Z,2.10
2019-05-29T02:42:29.308Z,1.90
2019-05-29T02:45:00.237Z,1.80
2019-05-29T02:47:31.051Z,1.93
2019-05-29T02:50:01.888Z,2.03
2019-05-29T02:52:32.736Z,1.93
2019-05-29T02:55:04.611Z,2.10
2019-05-29T02:57:35.432Z,2.00
2019-05-29T03:00:09.455Z,2.00
2019-05-29T03:02:40.314Z,2.00
2019-05-29T03:05:11.132Z,2.17
2019-05-29T03:07:42.017Z,2.00
2019-05-29T03:10:13.677Z,1.80
2019-05-29T03:12:44.822Z,1.80
2019-05-29T03:15:15.872Z,1.90
2019-05-29T03:17:46.732Z,1.80
2019-05-29T03:20:17.816Z,2.00
2019-05-29T03:22:48.708Z,2.10
2019-05-29T03:25:19.556Z,2.33
2019-05-29T03:27:50.499Z,2.20
2019-05-29T03:30:21.390Z,2.30
2019-05-29T03:32:52.419Z,2.30
2019-05-29T03:35:23.551Z,2.43
2019-05-29T03:37:58.034Z,2.00
2019-05-29T03:40:27.133Z,2.63
2019-05-29T03:42:58.647Z,2.50
2019-05-29T03:45:31.333Z,2.43
2019-05-29T03:48:02.290Z,2.50
2019-05-29T03:50:34.758Z,2.27
2019-05-29T03:53:05.878Z,1.90
2019-05-29T03:55:37.867Z,2.33
2019-05-29T03:58:08.935Z,2.00
2019-05-29T04:00:45.935Z,2.10
2019-05-29T04:03:12.244Z,2.33
2019-05-29T04:05:43.082Z,2.10
2019-05-29T04:08:13.896Z,2.30
2019-05-29T04:10:44.390Z,2.27
2019-05-29T04:13:15.395Z,2.10
2019-05-29T04:15:47.268Z,2.27
2019-05-29T04:18:20.431Z,2.37
2019-05-29T04:20:52.826Z,2.30
2019-05-29T04:23:25.280Z,2.20
2019-05-29T04:25:57.864Z,2.00
2019-05-29T04:28:30.336Z,2.13
2019-05-29T04:31:02.727Z,2.00
2019-05-29T04:33:35.042Z,2.43
2019-05-29T04:36:06.252Z,2.03
2019-05-29T04:38:38.493Z,2.40
2019-05-29T04:41:09.227Z,2.20
2019-05-29T04:43:40.115Z,2.30
2019-05-29T04:46:10.611Z,2.00
2019-05-29T04:48:41.534Z,2.30
2019-05-29T04:51:12.364Z,2.37
2019-05-29T04:53:43.199Z,2.23
2019-05-29T04:56:14.126Z,2.23
2019-05-29T04:58:44.998Z,2.43
2019-05-29T05:01:15.948Z,2.30
2019-05-29T05:03:48.516Z,2.10
2019-05-29T05:06:19.635Z,2.10
2019-05-29T05:08:51.049Z,2.30
2019-05-29T05:11:22.273Z,1.90
2019-05-29T05:13:53.473Z,2.20
2019-05-29T05:16:24.476Z,2.10
2019-05-29T05:18:55.283Z,2.07
2019-05-29T05:21:26.222Z,2.00
2019-05-29T05:23:56.780Z,2.10
2019-05-29T05:26:27.706Z,2.03
2019-05-29T05:28:58.522Z,2.20
2019-05-29T05:31:30.323Z,1.80
2019-05-29T05:34:01.423Z,1.90
2019-05-29T05:36:32.682Z,2.00
2019-05-29T05:39:04.326Z,1.83
2019-05-29T05:41:35.198Z,2.00
2019-05-29T05:44:06.004Z,1.70
2019-05-29T05:46:37.157Z,1.97
2019-05-29T05:49:08.118Z,1.80
2019-05-29T05:51:42.688Z,1.80
2019-05-29T05:54:11.294Z,1.80
2019-05-29T05:56:42.111Z,1.60
2019-05-29T05:59:12.988Z,1.77
2019-05-29T06:01:43.901Z,1.57
2019-05-29T06:04:14.724Z,1.60
2019-05-29T06:06:45.889Z,1.90
2019-05-29T06:09:17.282Z,1.60
2019-05-29T06:11:48.212Z,1.40
2019-05-29T06:14:19.343Z,1.60
2019-05-29T06:16:50.048Z,2.10
2019-05-29T06:19:20.998Z,2.00
2019-05-29T06:21:52.056Z,1.77
2019-05-29T06:24:22.791Z,1.80
2019-05-29T06:26:53.710Z,1.70
2019-05-29T06:29:24.748Z,1.40
2019-05-29T06:31:55.957Z,1.50
2019-05-29T06:34:28.572Z,1.40
2019-05-29T06:36:59.580Z,1.70
2019-05-29T06:39:30.457Z,1.80
2019-05-29T06:42:01.478Z,1.67
2019-05-29T06:44:34.137Z,1.60
2019-05-29T06:47:04.990Z,1.40
2019-05-29T06:49:36.233Z,1.80
2019-05-29T06:52:09.173Z,1.83
2019-05-29T06:54:40.022Z,1.50
2019-05-29T06:57:11.231Z,1.40
2019-05-29T06:59:42.431Z,1.50
2019-05-29T07:02:13.508Z,1.70
2019-05-29T07:04:44.688Z,1.70
2019-05-29T07:07:15.877Z,1.57
2019-05-29T07:09:47.213Z,1.47
2019-05-29T07:12:18.081Z,1.40
2019-05-29T07:14:48.900Z,1.50
2019-05-29T07:17:20.085Z,1.50
2019-05-29T07:20:00.731Z,1.40
2019-05-29T07:22:23.742Z,1.43
2019-05-29T07:24:54.595Z,1.30
2019-05-29T07:27:25.466Z,1.53
2019-05-29T07:29:56.397Z,1.40
2019-05-29T07:32:27.264Z,1.40
2019-05-29T07:35:03.868Z,1.30
2019-05-29T07:37:30.613Z,2.00
2019-05-29T07:40:01.491Z,1.60
2019-05-29T07:42:32.415Z,1.70
2019-05-29T07:45:03.956Z,1.43
2019-05-29T07:47:34.799Z,1.60
2019-05-29T07:50:08.281Z,1.50
2019-05-29T07:52:40.651Z,1.83
2019-05-29T07:55:11.932Z,1.50
2019-05-29T07:57:43.084Z,1.53
2019-05-29T08:00:14.592Z,1.30
2019-05-29T08:02:45.509Z,1.50
2019-05-29T08:05:16.795Z,1.67
2019-05-29T08:07:49.290Z,1.70
2019-05-29T08:10:21.909Z,2.00
2019-05-29T08:12:55.473Z,1.43
2019-05-29T08:15:25.284Z,1.97
2019-05-29T08:17:56.197Z,1.97
2019-05-29T08:20:27.043Z,1.80
2019-05-29T08:22:57.873Z,1.50
2019-05-29T08:25:28.728Z,1.67
2019-05-29T08:27:59.647Z,2.30
2019-05-29T08:30:30.483Z,1.83
2019-05-29T08:33:01.375Z,1.60
2019-05-29T08:35:32.471Z,1.70
2019-05-29T08:38:03.311Z,1.50
2019-05-29T08:40:34.244Z,1.40
2019-05-29T08:43:04.806Z,1.63
2019-05-29T08:45:35.617Z,1.57
2019-05-29T08:48:06.552Z,1.50
2019-05-29T08:50:37.386Z,1.90
2019-05-29T08:53:08.383Z,1.60
2019-05-29T08:55:39.161Z,1.40
2019-05-29T08:58:10.069Z,1.40
2019-05-29T09:00:45.531Z,1.60
2019-05-29T09:03:13.407Z,1.30
2019-05-29T09:05:44.567Z,1.40
2019-05-29T09:08:15.719Z,1.30
2019-05-29T09:10:47.211Z,1.20
2019-05-29T09:13:18.362Z,1.50
2019-05-29T09:15:48.919Z,1.27
2019-05-29T09:18:19.881Z,1.30
2019-05-29T09:21:02.792Z,1.30
2019-05-29T09:23:23.322Z,1.50
2019-05-29T09:25:54.422Z,1.50
2019-05-29T09:28:24.290Z,1.17
2019-05-29T09:30:55.147Z,1.37
2019-05-29T09:33:26.053Z,1.40
2019-05-29T09:35:57.084Z,1.50
2019-05-29T09:38:27.989Z,1.40
2019-05-29T09:40:58.491Z,1.40
2019-05-29T09:43:30.775Z,1.47
2019-05-29T09:46:02.411Z,1.30
2019-05-29T09:48:48.538Z,1.40
2019-05-29T09:51:20.544Z,1.53
2019-05-29T09:53:37.791Z,1.60
2019-05-29T09:56:08.389Z,1.20
2019-05-29T09:58:39.118Z,1.20
2019-05-29T10:01:22.966Z,1.50
2019-05-29T10:03:42.590Z,1.50
2019-05-29T10:06:13.610Z,1.67
2019-05-29T10:08:44.624Z,1.47
2019-05-29T10:11:15.454Z,1.40
2019-05-29T10:13:46.030Z,1.57
2019-05-29T10:16:16.523Z,1.30
2019-05-29T10:18:47.633Z,1.57
2019-05-29T10:21:18.496Z,1.43
2019-05-29T10:23:49.403Z,1.30
2019-05-29T10:26:20.367Z,1.37
2019-05-29T10:29:06.865Z,1.20
2019-05-29T10:31:24.004Z,1.40
2019-05-29T10:33:55.118Z,1.53
2019-05-29T10:36:26.112Z,1.40
2019-05-29T10:38:57.148Z,1.23
2019-05-29T10:41:28.096Z,1.20
2019-05-29T10:43:59.065Z,1.37
2019-05-29T10:46:30.108Z,1.43
2019-05-29T10:49:04.583Z,1.40
2019-05-29T10:51:33.551Z,1.50
2019-05-29T10:54:04.899Z,1.60
2019-05-29T10:56:35.452Z,1.80
2019-05-29T10:59:06.362Z,1.50
2019-05-29T11:01:37.550Z,1.40
2019-05-29T11:04:08.554Z,1.30
2019-05-29T11:06:40.723Z,1.53
2019-05-29T11:09:11.910Z,1.40
2019-05-29T11:11:42.432Z,1.50
2019-05-29T11:14:13.585Z,1.50
2019-05-29T11:16:44.674Z,1.40
2019-05-29T11:19:15.739Z,1.27
2019-05-29T11:21:48.116Z,1.47
2019-05-29T11:24:19.132Z,1.47
2019-05-29T11:26:50.300Z,1.40
2019-05-29T11:29:21.396Z,1.37
2019-05-29T11:31:56.954Z,1.50
2019-05-29T11:34:27.651Z,1.20
2019-05-29T11:36:58.554Z,1.40
2019-05-29T11:39:29.374Z,1.40
2019-05-29T11:42:03.396Z,1.50
2019-05-29T11:44:34.341Z,1.73
2019-05-29T11:47:05.398Z,1.20
2019-05-29T11:49:36.282Z,1.30
2019-05-29T11:52:23.833Z,1.30
2019-05-29T11:54:39.737Z,1.20
2019-05-29T11:57:10.651Z,1.40
2019-05-29T11:59:41.512Z,1.50
2019-05-29T12:02:12.426Z,1.40
2019-05-29T12:04:43.258Z,1.60
2019-05-29T12:07:14.814Z,1.50
2019-05-29T12:09:45.871Z,1.50
2019-05-29T12:12:16.780Z,1.30
2019-05-29T12:15:04.071Z,1.40
2019-05-29T12:17:20.023Z,1.30
2019-05-29T12:19:51.878Z,1.53
2019-05-29T12:22:22.991Z,1.40
2019-05-29T12:24:54.480Z,1.30
2019-05-29T12:27:25.630Z,1.10
2019-05-29T12:30:00.883Z,1.50
2019-05-29T12:32:32.108Z,1.10
2019-05-29T12:35:03.121Z,1.50
2019-05-29T12:37:40.678Z,1.33
2019-05-29T12:40:12.038Z,1.43
2019-05-29T12:42:46.512Z,1.40
2019-05-29T12:45:20.017Z,1.30
2019-05-29T12:47:50.937Z,1.30
2019-05-29T12:50:22.376Z,1.60
2019-05-29T12:52:53.619Z,1.50
2019-05-29T12:55:24.766Z,1.67
2019-05-29T12:57:55.947Z,1.30
2019-05-29T13:00:28.818Z,1.30
2019-05-29T13:03:00.772Z,1.50
2019-05-29T13:05:32.238Z,1.57
2019-05-29T13:08:03.225Z,1.40
2019-05-29T13:10:34.404Z,1.40
2019-05-29T13:13:10.638Z,1.40
2019-05-29T13:15:37.743Z,1.70
2019-05-29T13:18:10.177Z,1.50
2019-05-29T13:20:41.441Z,1.52
2019-05-29T13:23:12.442Z,1.50
2019-05-29T13:25:43.376Z,1.57
2019-05-29T13:28:14.161Z,1.47
2019-05-29T13:30:45.197Z,1.63
2019-05-29T13:33:15.996Z,1.60
2019-05-29T13:35:46.872Z,1.40
2019-05-29T13:38:18.039Z,1.50
2019-05-29T13:40:49.086Z,1.60
2019-05-29T13:43:20.157Z,1.60
2019-05-29T13:45:51.028Z,1.32
2019-05-29T13:48:23.461Z,1.50
2019-05-29T13:50:55.436Z,1.60
2019-05-29T13:53:26.291Z,1.80
2019-05-29T13:55:57.749Z,1.20
2019-05-29T13:58:28.458Z,1.70
2019-05-29T14:01:00.759Z,1.60
2019-05-29T14:03:32.836Z,1.33
2019-05-29T14:06:05.521Z,1.90
2019-05-29T14:08:36.552Z,1.60
2019-05-29T14:11:09.043Z,1.65
2019-05-29T14:13:40.038Z,1.83
2019-05-29T14:16:10.891Z,1.55
2019-05-29T14:18:41.367Z,2.33
2019-05-29T14:21:13.509Z,3.27
2019-05-29T14:23:44.700Z,1.62
2019-05-29T14:26:15.821Z,1.50
2019-05-29T14:28:46.714Z,1.60
2019-05-29T14:31:17.868Z,1.57
2019-05-29T14:33:48.418Z,1.70
2019-05-29T14:36:19.437Z,1.40
2019-05-29T14:38:50.295Z,1.70
2019-05-29T14:41:21.114Z,1.97
2019-05-29T14:43:52.133Z,1.67
2019-05-29T14:46:23.075Z,1.40
2019-05-29T14:48:54.106Z,1.50
2019-05-29T14:51:25.060Z,1.67
2019-05-29T14:53:55.907Z,1.50
2019-05-29T14:56:27.007Z,1.67
2019-05-29T14:58:58.194Z,1.43
2019-05-29T15:01:29.033Z,1.70
2019-05-29T15:04:00.010Z,1.50
2019-05-29T15:06:30.910Z,2.00
2019-05-29T15:09:01.917Z,1.50
2019-05-29T15:11:32.992Z,2.00
2019-05-29T15:14:06.020Z,1.70
2019-05-29T15:16:37.089Z,1.80
2019-05-29T15:19:08.919Z,1.37
2019-05-29T15:21:40.301Z,1.40
2019-05-29T15:24:11.635Z,1.35
2019-05-29T15:26:42.648Z,1.60
2019-05-29T15:29:16.375Z,1.50
2019-05-29T15:31:46.418Z,1.80
2019-05-29T15:34:17.410Z,1.57
2019-05-29T15:36:48.353Z,1.50
2019-05-29T15:39:20.693Z,1.52
2019-05-29T15:41:51.543Z,1.25
2019-05-29T15:44:22.689Z,1.50
2019-05-29T15:46:53.746Z,1.42
2019-05-29T15:49:24.421Z,1.10
2019-05-29T15:51:55.286Z,1.40
2019-05-29T15:54:26.344Z,1.35
2019-05-29T15:56:57.255Z,1.62
2019-05-29T15:59:28.189Z,1.40
2019-05-29T16:01:59.067Z,1.32
2019-05-29T16:04:30.103Z,1.57
2019-05-29T16:07:01.058Z,1.65
2019-05-29T16:09:32.083Z,1.42
2019-05-29T16:12:03.238Z,1.40
2019-05-29T16:14:35.315Z,1.47
2019-05-29T16:17:06.389Z,1.85
2019-05-29T16:19:37.477Z,1.33
2019-05-29T16:22:08.455Z,1.30
2019-05-29T16:24:39.566Z,1.43
2019-05-29T16:27:10.629Z,1.70
2019-05-29T16:29:41.445Z,1.80
2019-05-29T16:32:12.144Z,1.62
2019-05-29T16:34:43.010Z,1.40
2019-05-29T16:37:13.617Z,1.20
2019-05-29T16:39:44.594Z,1.43
2019-05-29T16:42:15.864Z,1.93
2019-05-29T16:44:46.469Z,1.25
2019-05-29T16:47:16.985Z,1.40
2019-05-29T16:49:47.502Z,1.67
2019-05-29T16:52:18.869Z,1.40
2019-05-29T16:54:49.930Z,1.32
2019-05-29T16:57:21.233Z,1.80
2019-05-29T17:00:03.959Z,1.50
2019-05-29T17:02:40.281Z,1.40
2019-05-29T17:05:15.857Z,1.60
2019-05-29T17:07:46.864Z,1.30
2019-05-29T17:10:20.160Z,1.40
2019-05-29T17:12:51.641Z,1.40
2019-05-29T17:15:22.937Z,1.47
2019-05-29T17:17:53.879Z,1.20
2019-05-29T17:20:44.647Z,1.45
2019-05-29T17:23:16.930Z,2.00
2019-05-29T17:25:47.710Z,1.70
2019-05-29T17:28:22.796Z,1.40
2019-05-29T17:30:50.957Z,1.50
2019-05-29T17:33:23.034Z,1.70
2019-05-29T17:35:54.207Z,1.47
2019-05-29T17:38:25.726Z,1.60
2019-05-29T17:40:57.105Z,1.60
2019-05-29T17:43:28.804Z,1.98
2019-05-29T17:45:59.765Z,1.70
2019-05-29T17:48:30.333Z,2.05
2019-05-29T17:51:01.241Z,1.67
2019-05-29T17:53:32.219Z,1.70
2019-05-29T17:56:06.187Z,1.70
2019-05-29T17:58:37.031Z,1.52
2019-05-29T18:01:08.097Z,1.60
2019-05-29T18:03:38.993Z,1.32
2019-05-29T18:06:09.819Z,1.52
2019-05-29T18:08:40.767Z,1.57
2019-05-29T18:11:11.968Z,1.57
2019-05-29T18:13:42.554Z,1.52
2019-05-29T18:16:13.277Z,1.17
2019-05-29T18:18:44.187Z,1.70
2019-05-29T18:21:15.125Z,1.33
2019-05-29T18:23:46.010Z,1.50
2019-05-29T18:26:17.939Z,1.40
2019-05-29T18:28:49.003Z,1.30
2019-05-29T18:31:20.332Z,1.40
2019-05-29T18:33:51.439Z,1.50
2019-05-29T18:36:23.114Z,1.47
2019-05-29T18:38:53.819Z,1.40
2019-05-29T18:41:24.653Z,1.50
2019-05-29T18:43:55.171Z,1.57
2019-05-29T18:46:27.257Z,1.80
2019-05-29T18:48:59.081Z,1.30
2019-05-29T18:51:29.681Z,1.80
2019-05-29T18:54:00.366Z,2.23
2019-05-29T18:56:32.271Z,2.03
2019-05-29T18:59:03.471Z,1.67
2019-05-29T19:01:34.007Z,2.50
2019-05-29T19:04:05.072Z,1.90
2019-05-29T19:06:35.623Z,2.10
2019-05-29T19:09:08.373Z,1.80
2019-05-29T19:11:39.296Z,2.80
2019-05-29T19:14:10.246Z,2.70
2019-05-29T19:16:41.154Z,2.33
2019-05-29T19:19:12.143Z,1.83
2019-05-29T19:21:45.553Z,2.50
2019-05-29T19:24:16.666Z,2.13
2019-05-29T19:26:47.494Z,2.00
2019-05-29T19:29:18.468Z,1.90
2019-05-29T19:31:49.364Z,2.50
2019-05-29T19:34:20.519Z,1.80
2019-05-29T19:36:51.426Z,1.93
2019-05-29T19:39:23.514Z,2.20
2019-05-29T19:41:54.672Z,1.53
2019-05-29T19:44:26.283Z,1.50
2019-05-29T19:46:57.252Z,1.80
2019-05-29T19:49:28.881Z,1.80
2019-05-29T19:51:59.989Z,1.70
2019-05-29T19:54:31.569Z,1.90
2019-05-29T19:57:04.260Z,2.00
2019-05-29T19:59:36.191Z,1.97
2019-05-29T20:02:08.078Z,2.07
2019-05-29T20:04:38.873Z,2.47
2019-05-29T20:07:09.400Z,2.70
2019-05-29T20:09:40.485Z,3.27
2019-05-29T20:12:11.393Z,3.07
2019-05-29T20:14:42.401Z,2.80
2019-05-29T20:17:13.286Z,2.40
2019-05-29T20:19:44.144Z,2.30
2019-05-29T20:22:15.023Z,2.63
2019-05-29T20:24:46.032Z,2.42
2019-05-29T20:27:16.898Z,2.53
2019-05-29T20:29:48.006Z,2.50
2019-05-29T20:32:18.585Z,2.83
2019-05-29T20:34:49.778Z,3.07
2019-05-29T20:37:20.677Z,2.87
2019-05-29T20:39:51.959Z,2.73
2019-05-29T20:42:24.564Z,2.77
2019-05-29T20:44:55.464Z,2.40
2019-05-29T20:47:26.361Z,2.85
2019-05-29T20:49:57.561Z,2.60
2019-05-29T20:52:28.467Z,2.97
2019-05-29T20:54:59.108Z,2.87
2019-05-29T20:57:29.757Z,3.40
2019-05-29T21:00:00.366Z,3.13
2019-05-29T21:02:32.023Z,3.13
2019-05-29T21:05:03.096Z,3.50
2019-05-29T21:07:34.605Z,3.40
2019-05-29T21:10:06.431Z,3.20
2019-05-29T21:12:37.917Z,2.70
2019-05-29T21:15:10.360Z,3.13
2019-05-29T21:17:42.141Z,3.33
2019-05-29T21:20:13.679Z,3.12
2019-05-29T21:22:44.970Z,3.17
2019-05-29T21:25:19.140Z,3.47
2019-05-29T21:27:49.625Z,3.00
2019-05-29T21:30:24.509Z,3.10
2019-05-29T21:32:55.431Z,3.10
2019-05-29T21:35:26.354Z,6.37
2019-05-29T21:37:57.227Z,3.60
2019-05-29T21:40:27.972Z,3.53
2019-05-29T21:42:59.192Z,3.23
2019-05-29T21:45:30.197Z,3.40
2019-05-29T21:48:01.198Z,3.17
2019-05-29T21:50:32.154Z,3.20
2019-05-29T21:53:03.031Z,3.17
2019-05-29T21:55:33.930Z,3.33
2019-05-29T21:58:04.565Z,5.80
2019-05-29T22:00:44.562Z,3.83
2019-05-29T22:03:15.476Z,3.70
2019-05-29T22:05:46.839Z,3.30
2019-05-29T22:08:17.486Z,4.10
2019-05-29T22:10:48.250Z,3.60
2019-05-29T22:13:18.939Z,3.03
2019-05-29T22:15:50.634Z,3.17
2019-05-29T22:18:21.648Z,3.00
2019-05-29T22:20:52.993Z,3.10
2019-05-29T22:23:23.833Z,3.60
2019-05-29T22:25:55.279Z,3.20
2019-05-29T22:28:26.207Z,5.27
2019-05-29T22:30:57.340Z,2.60
2019-05-29T22:33:28.407Z,2.50
2019-05-29T22:35:59.506Z,2.60
2019-05-29T22:38:30.383Z,2.30
2019-05-29T22:41:01.887Z,2.70
2019-05-29T22:43:32.915Z,2.43
2019-05-29T22:46:04.023Z,3.00
2019-05-29T22:48:34.946Z,2.80
2019-05-29T22:51:05.786Z,2.40
2019-05-29T22:53:36.510Z,2.47
2019-05-29T22:56:07.289Z,2.40
2019-05-29T22:58:37.776Z,2.80
2019-05-29T23:01:08.732Z,2.33
2019-05-29T23:03:39.637Z,3.07
2019-05-29T23:06:10.612Z,2.53
2019-05-29T23:08:41.447Z,3.60
2019-05-29T23:11:12.291Z,2.77
2019-05-29T23:13:43.323Z,3.10
2019-05-29T23:16:14.195Z,2.63
2019-05-29T23:18:45.000Z,2.60
2019-05-29T23:21:15.905Z,2.70
2019-05-29T23:23:47.766Z,2.60
2019-05-29T23:26:18.659Z,2.60
2019-05-29T23:28:49.569Z,2.50
2019-05-29T23:31:20.373Z,2.40
2019-05-29T23:33:51.249Z,2.60
2019-05-29T23:36:22.322Z,2.50
2019-05-29T23:38:53.282Z,2.40
2019-05-29T23:41:23.803Z,2.30
2019-05-29T23:43:55.447Z,2.23
2019-05-29T23:46:26.450Z,2.20
2019-05-29T23:48:57.563Z,2.23
2019-05-29T23:51:28.763Z,2.50
2019-05-29T23:53:59.828Z,2.40
2019-05-29T23:56:32.500Z,2.40
2019-05-29T23:59:04.127Z,1.90
